sensor_id;sensor_type;location;lat;lon;timestamp;temperature;humidity
4840;DHT22;2434;48.486;7.964;2023-04-25T00:00:26;11.60;48.40
4840;DHT22;2434;48.486;7.964;2023-04-25T00:02:54;11.60;48.50
4840;DHT22;2434;48.486;7.964;2023-04-25T00:05:26;11.60;48.40
4840;DHT22;2434;48.486;7.964;2023-04-25T00:07:54;11.60;48.80
4840;DHT22;2434;48.486;7.964;2023-04-25T00:10:23;11.50;49.90
4840;DHT22;2434;48.486;7.964;2023-04-25T00:12:51;11.60;49.70
4840;DHT22;2434;48.486;7.964;2023-04-25T00:15:20;11.60;50.60
4840;DHT22;2434;48.486;7.964;2023-04-25T00:17:48;11.60;48.90
4840;DHT22;2434;48.486;7.964;2023-04-25T00:20:20;11.60;49.30
4840;DHT22;2434;48.486;7.964;2023-04-25T00:22:50;11.60;48.70
4840;DHT22;2434;48.486;7.964;2023-04-25T00:25:19;11.60;49.90
4840;DHT22;2434;48.486;7.964;2023-04-25T00:27:47;11.50;50.00
4840;DHT22;2434;48.486;7.964;2023-04-25T00:30:16;11.50;49.20
4840;DHT22;2434;48.486;7.964;2023-04-25T00:32:44;11.60;48.60
4840;DHT22;2434;48.486;7.964;2023-04-25T00:35:13;11.60;48.30
4840;DHT22;2434;48.486;7.964;2023-04-25T00:37:41;11.50;48.70
4840;DHT22;2434;48.486;7.964;2023-04-25T00:40:11;11.50;48.80
4840;DHT22;2434;48.486;7.964;2023-04-25T00:42:40;11.50;49.10
4840;DHT22;2434;48.486;7.964;2023-04-25T00:45:13;11.50;48.50
4840;DHT22;2434;48.486;7.964;2023-04-25T00:47:42;11.50;48.30
4840;DHT22;2434;48.486;7.964;2023-04-25T00:50:10;11.40;48.10
4840;DHT22;2434;48.486;7.964;2023-04-25T00:52:41;11.40;48.70
4840;DHT22;2434;48.486;7.964;2023-04-25T00:55:12;11.30;48.50
4840;DHT22;2434;48.486;7.964;2023-04-25T00:57:40;11.30;48.70
4840;DHT22;2434;48.486;7.964;2023-04-25T01:00:10;11.30;49.00
4840;DHT22;2434;48.486;7.964;2023-04-25T01:02:40;11.20;49.10
4840;DHT22;2434;48.486;7.964;2023-04-25T01:05:09;11.20;49.30
4840;DHT22;2434;48.486;7.964;2023-04-25T01:07:39;11.20;49.60
4840;DHT22;2434;48.486;7.964;2023-04-25T01:10:08;11.20;50.10
4840;DHT22;2434;48.486;7.964;2023-04-25T01:12:38;11.20;50.40
4840;DHT22;2434;48.486;7.964;2023-04-25T01:15:07;11.20;50.50
4840;DHT22;2434;48.486;7.964;2023-04-25T01:17:36;11.10;51.10
4840;DHT22;2434;48.486;7.964;2023-04-25T01:20:05;11.10;51.20
4840;DHT22;2434;48.486;7.964;2023-04-25T01:22:35;11.10;51.50
4840;DHT22;2434;48.486;7.964;2023-04-25T01:25:05;11.00;51.40
4840;DHT22;2434;48.486;7.964;2023-04-25T01:27:33;11.10;51.40
4840;DHT22;2434;48.486;7.964;2023-04-25T01:30:02;11.10;51.50
4840;DHT22;2434;48.486;7.964;2023-04-25T01:32:33;11.10;51.50
4840;DHT22;2434;48.486;7.964;2023-04-25T01:35:06;11.10;50.80
4840;DHT22;2434;48.486;7.964;2023-04-25T01:37:38;11.10;51.30
4840;DHT22;2434;48.486;7.964;2023-04-25T01:40:08;11.10;50.80
4840;DHT22;2434;48.486;7.964;2023-04-25T01:42:40;11.10;50.70
4840;DHT22;2434;48.486;7.964;2023-04-25T01:45:10;11.10;50.70
4840;DHT22;2434;48.486;7.964;2023-04-25T01:47:39;11.00;50.70
4840;DHT22;2434;48.486;7.964;2023-04-25T01:50:10;10.90;50.90
4840;DHT22;2434;48.486;7.964;2023-04-25T01:52:40;10.90;51.10
4840;DHT22;2434;48.486;7.964;2023-04-25T01:55:09;10.90;51.20
4840;DHT22;2434;48.486;7.964;2023-04-25T01:57:42;10.90;51.30
4840;DHT22;2434;48.486;7.964;2023-04-25T02:00:12;10.90;51.20
4840;DHT22;2434;48.486;7.964;2023-04-25T02:02:40;10.90;51.40
4840;DHT22;2434;48.486;7.964;2023-04-25T02:05:27;10.90;51.50
4840;DHT22;2434;48.486;7.964;2023-04-25T02:07:57;10.90;51.40
4840;DHT22;2434;48.486;7.964;2023-04-25T02:10:26;10.80;52.30
4840;DHT22;2434;48.486;7.964;2023-04-25T02:13:07;10.80;52.10
4840;DHT22;2434;48.486;7.964;2023-04-25T02:16:05;10.70;54.10
4840;DHT22;2434;48.486;7.964;2023-04-25T02:18:33;10.60;54.40
4840;DHT22;2434;48.486;7.964;2023-04-25T02:21:06;10.80;54.30
4840;DHT22;2434;48.486;7.964;2023-04-25T02:23:36;10.90;55.10
4840;DHT22;2434;48.486;7.964;2023-04-25T02:26:05;10.80;54.30
4840;DHT22;2434;48.486;7.964;2023-04-25T02:28:33;10.90;54.70
4840;DHT22;2434;48.486;7.964;2023-04-25T02:31:04;10.90;55.80
4840;DHT22;2434;48.486;7.964;2023-04-25T02:33:33;10.50;58.00
4840;DHT22;2434;48.486;7.964;2023-04-25T02:36:05;10.50;57.50
4840;DHT22;2434;48.486;7.964;2023-04-25T02:38:33;10.70;57.00
4840;DHT22;2434;48.486;7.964;2023-04-25T02:41:05;10.70;56.90
4840;DHT22;2434;48.486;7.964;2023-04-25T02:43:33;10.70;56.70
4840;DHT22;2434;48.486;7.964;2023-04-25T02:46:02;10.80;57.40
4840;DHT22;2434;48.486;7.964;2023-04-25T02:48:30;10.80;57.20
4840;DHT22;2434;48.486;7.964;2023-04-25T02:50:58;10.60;57.10
4840;DHT22;2434;48.486;7.964;2023-04-25T02:53:29;10.40;59.20
4840;DHT22;2434;48.486;7.964;2023-04-25T02:55:57;10.50;58.30
4840;DHT22;2434;48.486;7.964;2023-04-25T02:58:27;10.60;57.70
4840;DHT22;2434;48.486;7.964;2023-04-25T03:00:55;10.60;56.60
4840;DHT22;2434;48.486;7.964;2023-04-25T03:03:24;10.30;57.80
4840;DHT22;2434;48.486;7.964;2023-04-25T03:05:52;10.40;57.10
4840;DHT22;2434;48.486;7.964;2023-04-25T03:08:25;10.50;56.50
4840;DHT22;2434;48.486;7.964;2023-04-25T03:10:59;10.50;56.80
4840;DHT22;2434;48.486;7.964;2023-04-25T03:13:30;10.50;56.70
4840;DHT22;2434;48.486;7.964;2023-04-25T03:15:58;10.60;56.20
4840;DHT22;2434;48.486;7.964;2023-04-25T03:18:27;10.60;56.50
4840;DHT22;2434;48.486;7.964;2023-04-25T03:20:55;10.70;58.10
4840;DHT22;2434;48.486;7.964;2023-04-25T03:23:23;10.70;58.40
4840;DHT22;2434;48.486;7.964;2023-04-25T03:25:53;10.70;59.50
4840;DHT22;2434;48.486;7.964;2023-04-25T03:28:22;10.60;60.30
4840;DHT22;2434;48.486;7.964;2023-04-25T03:30:52;10.60;60.20
4840;DHT22;2434;48.486;7.964;2023-04-25T03:33:21;10.50;60.20
4840;DHT22;2434;48.486;7.964;2023-04-25T03:35:50;10.40;60.60
4840;DHT22;2434;48.486;7.964;2023-04-25T03:38:19;10.40;61.40
4840;DHT22;2434;48.486;7.964;2023-04-25T03:40:47;10.20;61.90
4840;DHT22;2434;48.486;7.964;2023-04-25T03:43:19;10.20;62.80
4840;DHT22;2434;48.486;7.964;2023-04-25T03:45:55;10.20;62.80
4840;DHT22;2434;48.486;7.964;2023-04-25T03:48:25;10.20;63.00
4840;DHT22;2434;48.486;7.964;2023-04-25T03:50:54;10.20;62.80
4840;DHT22;2434;48.486;7.964;2023-04-25T03:53:24;10.20;63.30
4840;DHT22;2434;48.486;7.964;2023-04-25T03:56:31;10.20;62.50
4840;DHT22;2434;48.486;7.964;2023-04-25T03:59:07;10.10;62.80
4840;DHT22;2434;48.486;7.964;2023-04-25T04:01:37;10.00;62.80
4840;DHT22;2434;48.486;7.964;2023-04-25T04:04:05;10.00;63.20
4840;DHT22;2434;48.486;7.964;2023-04-25T04:06:34;10.00;62.90
4840;DHT22;2434;48.486;7.964;2023-04-25T04:09:10;10.00;62.20
4840;DHT22;2434;48.486;7.964;2023-04-25T04:11:42;10.00;62.40
4840;DHT22;2434;48.486;7.964;2023-04-25T04:14:10;10.00;61.60
4840;DHT22;2434;48.486;7.964;2023-04-25T04:16:44;10.00;61.60
4840;DHT22;2434;48.486;7.964;2023-04-25T04:19:13;10.00;61.40
4840;DHT22;2434;48.486;7.964;2023-04-25T04:21:46;10.00;61.40
4840;DHT22;2434;48.486;7.964;2023-04-25T04:24:15;10.10;62.40
4840;DHT22;2434;48.486;7.964;2023-04-25T04:26:50;10.20;61.60
4840;DHT22;2434;48.486;7.964;2023-04-25T04:29:29;10.20;63.10
4840;DHT22;2434;48.486;7.964;2023-04-25T04:32:08;10.20;61.70
4840;DHT22;2434;48.486;7.964;2023-04-25T04:34:37;10.30;62.00
4840;DHT22;2434;48.486;7.964;2023-04-25T04:37:07;10.30;62.10
4840;DHT22;2434;48.486;7.964;2023-04-25T04:39:36;10.30;62.10
4840;DHT22;2434;48.486;7.964;2023-04-25T04:42:16;10.40;63.60
4840;DHT22;2434;48.486;7.964;2023-04-25T04:45:06;10.40;63.20
4840;DHT22;2434;48.486;7.964;2023-04-25T04:48:00;10.40;63.30
4840;DHT22;2434;48.486;7.964;2023-04-25T04:50:32;10.30;63.70
4840;DHT22;2434;48.486;7.964;2023-04-25T04:53:27;10.20;63.30
4840;DHT22;2434;48.486;7.964;2023-04-25T04:56:15;10.10;63.00
4840;DHT22;2434;48.486;7.964;2023-04-25T04:59:07;10.10;62.70
4840;DHT22;2434;48.486;7.964;2023-04-25T05:01:44;10.10;63.40
4840;DHT22;2434;48.486;7.964;2023-04-25T05:04:18;10.10;63.80
4840;DHT22;2434;48.486;7.964;2023-04-25T05:06:59;10.10;63.50
4840;DHT22;2434;48.486;7.964;2023-04-25T05:09:39;10.10;64.80
4840;DHT22;2434;48.486;7.964;2023-04-25T05:12:27;10.10;65.10
4840;DHT22;2434;48.486;7.964;2023-04-25T05:15:13;9.90;67.70
4840;DHT22;2434;48.486;7.964;2023-04-25T05:17:54;9.50;72.40
4840;DHT22;2434;48.486;7.964;2023-04-25T05:20:42;9.40;73.80
4840;DHT22;2434;48.486;7.964;2023-04-25T05:23:36;9.30;76.70
4840;DHT22;2434;48.486;7.964;2023-04-25T05:26:12;9.20;77.30
4840;DHT22;2434;48.486;7.964;2023-04-25T05:29:06;9.20;76.30
4840;DHT22;2434;48.486;7.964;2023-04-25T05:32:00;9.50;72.60
4840;DHT22;2434;48.486;7.964;2023-04-25T05:34:29;9.80;71.60
4840;DHT22;2434;48.486;7.964;2023-04-25T05:37:05;10.00;70.30
4840;DHT22;2434;48.486;7.964;2023-04-25T05:39:41;10.10;70.30
4840;DHT22;2434;48.486;7.964;2023-04-25T05:42:19;10.10;69.80
4840;DHT22;2434;48.486;7.964;2023-04-25T05:45:06;10.20;67.70
4840;DHT22;2434;48.486;7.964;2023-04-25T05:48:01;10.20;66.60
4840;DHT22;2434;48.486;7.964;2023-04-25T05:50:48;10.20;67.40
4840;DHT22;2434;48.486;7.964;2023-04-25T05:53:55;10.20;67.80
4840;DHT22;2434;48.486;7.964;2023-04-25T05:56:23;10.20;68.00
4840;DHT22;2434;48.486;7.964;2023-04-25T05:58:52;10.20;67.80
4840;DHT22;2434;48.486;7.964;2023-04-25T06:01:22;10.30;67.60
4840;DHT22;2434;48.486;7.964;2023-04-25T06:03:50;10.20;67.80
4840;DHT22;2434;48.486;7.964;2023-04-25T06:06:20;10.30;68.10
4840;DHT22;2434;48.486;7.964;2023-04-25T06:08:48;10.30;68.00
4840;DHT22;2434;48.486;7.964;2023-04-25T06:11:18;10.20;68.80
4840;DHT22;2434;48.486;7.964;2023-04-25T06:13:47;10.10;69.20
4840;DHT22;2434;48.486;7.964;2023-04-25T06:16:16;10.10;70.20
4840;DHT22;2434;48.486;7.964;2023-04-25T06:18:44;9.90;72.30
4840;DHT22;2434;48.486;7.964;2023-04-25T06:21:14;9.90;71.20
4840;DHT22;2434;48.486;7.964;2023-04-25T06:23:43;9.80;73.40
4840;DHT22;2434;48.486;7.964;2023-04-25T06:26:19;9.80;73.70
4840;DHT22;2434;48.486;7.964;2023-04-25T06:28:48;9.60;75.60
4840;DHT22;2434;48.486;7.964;2023-04-25T06:31:16;9.60;74.80
4840;DHT22;2434;48.486;7.964;2023-04-25T06:33:46;9.40;77.10
4840;DHT22;2434;48.486;7.964;2023-04-25T06:36:15;9.50;77.60
4840;DHT22;2434;48.486;7.964;2023-04-25T06:38:47;9.50;76.20
4840;DHT22;2434;48.486;7.964;2023-04-25T06:41:16;9.60;75.50
4840;DHT22;2434;48.486;7.964;2023-04-25T06:43:46;9.60;76.20
4840;DHT22;2434;48.486;7.964;2023-04-25T06:46:37;9.20;79.70
4840;DHT22;2434;48.486;7.964;2023-04-25T06:49:06;9.20;80.10
4840;DHT22;2434;48.486;7.964;2023-04-25T06:51:34;9.10;82.00
4840;DHT22;2434;48.486;7.964;2023-04-25T06:54:03;9.10;83.20
4840;DHT22;2434;48.486;7.964;2023-04-25T06:56:40;8.80;84.90
4840;DHT22;2434;48.486;7.964;2023-04-25T06:59:14;8.90;86.50
4840;DHT22;2434;48.486;7.964;2023-04-25T07:01:45;8.90;85.70
4840;DHT22;2434;48.486;7.964;2023-04-25T07:04:17;9.00;84.50
4840;DHT22;2434;48.486;7.964;2023-04-25T07:06:52;8.80;87.10
4840;DHT22;2434;48.486;7.964;2023-04-25T07:09:32;8.40;86.60
4840;DHT22;2434;48.486;7.964;2023-04-25T07:12:00;8.20;86.60
4840;DHT22;2434;48.486;7.964;2023-04-25T07:14:31;8.00;89.50
4840;DHT22;2434;48.486;7.964;2023-04-25T07:16:59;7.90;89.70
4840;DHT22;2434;48.486;7.964;2023-04-25T07:19:30;7.90;89.70
4840;DHT22;2434;48.486;7.964;2023-04-25T07:22:01;8.00;89.70
4840;DHT22;2434;48.486;7.964;2023-04-25T07:24:30;8.10;89.90
4840;DHT22;2434;48.486;7.964;2023-04-25T07:26:59;8.00;86.80
4840;DHT22;2434;48.486;7.964;2023-04-25T07:29:49;8.10;88.40
4840;DHT22;2434;48.486;7.964;2023-04-25T07:32:17;8.00;87.70
4840;DHT22;2434;48.486;7.964;2023-04-25T07:34:46;7.90;86.20
4840;DHT22;2434;48.486;7.964;2023-04-25T07:37:14;7.90;85.70
4840;DHT22;2434;48.486;7.964;2023-04-25T07:39:57;7.80;86.70
4840;DHT22;2434;48.486;7.964;2023-04-25T07:42:25;7.70;86.20
4840;DHT22;2434;48.486;7.964;2023-04-25T07:44:55;7.80;85.70
4840;DHT22;2434;48.486;7.964;2023-04-25T07:47:23;7.80;83.90
4840;DHT22;2434;48.486;7.964;2023-04-25T07:49:52;8.00;84.40
4840;DHT22;2434;48.486;7.964;2023-04-25T07:52:21;7.90;84.90
4840;DHT22;2434;48.486;7.964;2023-04-25T07:54:55;7.80;87.60
4840;DHT22;2434;48.486;7.964;2023-04-25T07:57:33;7.90;88.50
4840;DHT22;2434;48.486;7.964;2023-04-25T08:00:05;7.90;87.50
4840;DHT22;2434;48.486;7.964;2023-04-25T08:02:39;7.70;87.60
4840;DHT22;2434;48.486;7.964;2023-04-25T08:05:13;7.70;87.80
4840;DHT22;2434;48.486;7.964;2023-04-25T08:07:51;7.60;88.30
4840;DHT22;2434;48.486;7.964;2023-04-25T08:10:20;7.60;89.80
4840;DHT22;2434;48.486;7.964;2023-04-25T08:12:49;7.70;89.70
4840;DHT22;2434;48.486;7.964;2023-04-25T08:15:19;7.70;89.80
4840;DHT22;2434;48.486;7.964;2023-04-25T08:17:47;7.70;89.60
4840;DHT22;2434;48.486;7.964;2023-04-25T08:20:16;7.80;90.00
4840;DHT22;2434;48.486;7.964;2023-04-25T08:22:45;7.90;87.80
4840;DHT22;2434;48.486;7.964;2023-04-25T08:25:39;7.80;90.20
4840;DHT22;2434;48.486;7.964;2023-04-25T08:28:10;7.70;90.70
4840;DHT22;2434;48.486;7.964;2023-04-25T08:30:40;7.80;89.80
4840;DHT22;2434;48.486;7.964;2023-04-25T08:33:11;7.80;91.30
4840;DHT22;2434;48.486;7.964;2023-04-25T08:36:12;7.80;90.40
4840;DHT22;2434;48.486;7.964;2023-04-25T08:38:47;7.80;87.90
4840;DHT22;2434;48.486;7.964;2023-04-25T08:41:19;7.80;88.50
4840;DHT22;2434;48.486;7.964;2023-04-25T08:43:49;7.80;88.00
4840;DHT22;2434;48.486;7.964;2023-04-25T08:46:20;7.90;87.30
4840;DHT22;2434;48.486;7.964;2023-04-25T08:49:02;7.80;85.00
4840;DHT22;2434;48.486;7.964;2023-04-25T08:51:32;7.50;79.10
4840;DHT22;2434;48.486;7.964;2023-04-25T08:54:09;7.50;82.10
4840;DHT22;2434;48.486;7.964;2023-04-25T08:56:44;7.60;82.00
4840;DHT22;2434;48.486;7.964;2023-04-25T08:59:13;7.80;81.60
4840;DHT22;2434;48.486;7.964;2023-04-25T09:01:45;8.10;82.10
4840;DHT22;2434;48.486;7.964;2023-04-25T09:04:14;8.30;82.80
4840;DHT22;2434;48.486;7.964;2023-04-25T09:06:43;8.50;81.50
4840;DHT22;2434;48.486;7.964;2023-04-25T09:09:12;8.60;81.70
4840;DHT22;2434;48.486;7.964;2023-04-25T09:11:40;8.60;81.30
4840;DHT22;2434;48.486;7.964;2023-04-25T09:14:12;8.70;79.10
4840;DHT22;2434;48.486;7.964;2023-04-25T09:17:08;8.70;79.10
4840;DHT22;2434;48.486;7.964;2023-04-25T09:19:41;8.70;78.90
4840;DHT22;2434;48.486;7.964;2023-04-25T09:22:17;8.80;78.90
4840;DHT22;2434;48.486;7.964;2023-04-25T09:24:48;8.70;79.30
4840;DHT22;2434;48.486;7.964;2023-04-25T09:27:21;8.70;78.00
4840;DHT22;2434;48.486;7.964;2023-04-25T09:29:57;8.60;79.10
4840;DHT22;2434;48.486;7.964;2023-04-25T09:32:30;8.60;80.10
4840;DHT22;2434;48.486;7.964;2023-04-25T09:34:59;8.70;81.30
4840;DHT22;2434;48.486;7.964;2023-04-25T09:37:30;8.70;78.80
4840;DHT22;2434;48.486;7.964;2023-04-25T09:40:27;8.60;77.60
4840;DHT22;2434;48.486;7.964;2023-04-25T09:43:10;8.60;77.30
4840;DHT22;2434;48.486;7.964;2023-04-25T09:45:43;8.60;79.30
4840;DHT22;2434;48.486;7.964;2023-04-25T09:48:18;8.60;79.70
4840;DHT22;2434;48.486;7.964;2023-04-25T09:51:04;8.60;79.40
4840;DHT22;2434;48.486;7.964;2023-04-25T09:53:34;8.60;78.80
4840;DHT22;2434;48.486;7.964;2023-04-25T09:56:16;8.60;75.80
4840;DHT22;2434;48.486;7.964;2023-04-25T09:58:44;8.60;77.10
4840;DHT22;2434;48.486;7.964;2023-04-25T10:01:12;8.70;77.40
4840;DHT22;2434;48.486;7.964;2023-04-25T10:03:56;8.70;77.40
4840;DHT22;2434;48.486;7.964;2023-04-25T10:06:45;8.70;77.80
4840;DHT22;2434;48.486;7.964;2023-04-25T10:09:19;8.70;77.60
4840;DHT22;2434;48.486;7.964;2023-04-25T10:11:48;8.70;77.70
4840;DHT22;2434;48.486;7.964;2023-04-25T10:14:18;8.70;79.00
4840;DHT22;2434;48.486;7.964;2023-04-25T10:16:47;8.70;80.00
4840;DHT22;2434;48.486;7.964;2023-04-25T10:19:18;8.70;78.40
4840;DHT22;2434;48.486;7.964;2023-04-25T10:21:50;8.80;78.40
4840;DHT22;2434;48.486;7.964;2023-04-25T10:24:19;8.80;78.80
4840;DHT22;2434;48.486;7.964;2023-04-25T10:26:48;8.80;79.50
4840;DHT22;2434;48.486;7.964;2023-04-25T10:29:22;8.80;78.40
4840;DHT22;2434;48.486;7.964;2023-04-25T10:31:51;8.90;79.90
4840;DHT22;2434;48.486;7.964;2023-04-25T10:34:24;8.90;79.50
4840;DHT22;2434;48.486;7.964;2023-04-25T10:36:53;9.00;81.90
4840;DHT22;2434;48.486;7.964;2023-04-25T10:39:23;9.00;79.90
4840;DHT22;2434;48.486;7.964;2023-04-25T10:41:56;8.90;80.20
4840;DHT22;2434;48.486;7.964;2023-04-25T10:44:26;9.00;80.40
4840;DHT22;2434;48.486;7.964;2023-04-25T10:46:56;8.90;78.30
4840;DHT22;2434;48.486;7.964;2023-04-25T10:49:30;9.00;77.90
4840;DHT22;2434;48.486;7.964;2023-04-25T10:52:17;9.10;80.00
4840;DHT22;2434;48.486;7.964;2023-04-25T10:54:51;9.10;80.60
4840;DHT22;2434;48.486;7.964;2023-04-25T10:57:36;9.20;83.10
4840;DHT22;2434;48.486;7.964;2023-04-25T11:00:10;9.30;81.60
4840;DHT22;2434;48.486;7.964;2023-04-25T11:02:44;9.30;79.60
4840;DHT22;2434;48.486;7.964;2023-04-25T11:05:23;9.30;79.20
4840;DHT22;2434;48.486;7.964;2023-04-25T11:07:54;9.40;76.70
4840;DHT22;2434;48.486;7.964;2023-04-25T11:10:27;9.50;79.20
4840;DHT22;2434;48.486;7.964;2023-04-25T11:12:56;9.40;75.70
4840;DHT22;2434;48.486;7.964;2023-04-25T11:15:25;9.40;76.50
4840;DHT22;2434;48.486;7.964;2023-04-25T11:17:54;9.50;78.00
4840;DHT22;2434;48.486;7.964;2023-04-25T11:20:25;9.70;81.70
4840;DHT22;2434;48.486;7.964;2023-04-25T11:22:58;9.80;81.90
4840;DHT22;2434;48.486;7.964;2023-04-25T11:25:27;10.00;84.20
4840;DHT22;2434;48.486;7.964;2023-04-25T11:27:58;10.10;82.90
4840;DHT22;2434;48.486;7.964;2023-04-25T11:30:28;10.10;80.00
4840;DHT22;2434;48.486;7.964;2023-04-25T11:32:57;10.20;79.80
4840;DHT22;2434;48.486;7.964;2023-04-25T11:35:27;10.20;79.10
4840;DHT22;2434;48.486;7.964;2023-04-25T11:37:56;10.10;76.90
4840;DHT22;2434;48.486;7.964;2023-04-25T11:40:24;10.40;79.30
4840;DHT22;2434;48.486;7.964;2023-04-25T11:42:53;10.50;76.10
4840;DHT22;2434;48.486;7.964;2023-04-25T11:45:22;10.60;74.10
4840;DHT22;2434;48.486;7.964;2023-04-25T11:47:51;10.70;74.10
4840;DHT22;2434;48.486;7.964;2023-04-25T11:50:20;10.50;69.60
4840;DHT22;2434;48.486;7.964;2023-04-25T11:52:49;10.60;69.10
4840;DHT22;2434;48.486;7.964;2023-04-25T11:55:19;10.70;71.40
4840;DHT22;2434;48.486;7.964;2023-04-25T11:57:49;10.70;71.10
4840;DHT22;2434;48.486;7.964;2023-04-25T12:00:19;10.80;70.40
4840;DHT22;2434;48.486;7.964;2023-04-25T12:02:51;10.80;74.70
4840;DHT22;2434;48.486;7.964;2023-04-25T12:05:24;10.80;72.40
4840;DHT22;2434;48.486;7.964;2023-04-25T12:08:11;10.80;70.70
4840;DHT22;2434;48.486;7.964;2023-04-25T12:10:41;10.80;71.40
4840;DHT22;2434;48.486;7.964;2023-04-25T12:13:21;10.90;71.10
4840;DHT22;2434;48.486;7.964;2023-04-25T12:15:49;10.90;69.70
4840;DHT22;2434;48.486;7.964;2023-04-25T12:18:19;11.00;70.50
4840;DHT22;2434;48.486;7.964;2023-04-25T12:20:48;10.90;69.70
4840;DHT22;2434;48.486;7.964;2023-04-25T12:23:25;10.90;71.50
4840;DHT22;2434;48.486;7.964;2023-04-25T12:25:54;11.00;73.80
4840;DHT22;2434;48.486;7.964;2023-04-25T12:28:24;11.10;71.20
4840;DHT22;2434;48.486;7.964;2023-04-25T12:30:59;11.10;71.80
4840;DHT22;2434;48.486;7.964;2023-04-25T12:33:29;11.20;69.40
4840;DHT22;2434;48.486;7.964;2023-04-25T12:35:57;11.10;66.30
4840;DHT22;2434;48.486;7.964;2023-04-25T12:38:29;11.20;68.10
4840;DHT22;2434;48.486;7.964;2023-04-25T12:40:58;11.30;69.60
4840;DHT22;2434;48.486;7.964;2023-04-25T12:43:26;11.50;69.80
4840;DHT22;2434;48.486;7.964;2023-04-25T12:45:55;11.40;65.00
4840;DHT22;2434;48.486;7.964;2023-04-25T12:48:24;11.30;64.70
4840;DHT22;2434;48.486;7.964;2023-04-25T12:50:52;11.30;65.40
4840;DHT22;2434;48.486;7.964;2023-04-25T12:53:22;11.50;64.30
4840;DHT22;2434;48.486;7.964;2023-04-25T12:55:52;11.60;64.70
4840;DHT22;2434;48.486;7.964;2023-04-25T12:58:21;11.60;65.40
4840;DHT22;2434;48.486;7.964;2023-04-25T13:00:50;11.60;63.90
4840;DHT22;2434;48.486;7.964;2023-04-25T13:03:18;10.50;68.90
4840;DHT22;2434;48.486;7.964;2023-04-25T13:05:47;9.70;77.00
4840;DHT22;2434;48.486;7.964;2023-04-25T13:08:17;9.10;87.60
4840;DHT22;2434;48.486;7.964;2023-04-25T13:10:45;8.70;80.60
4840;DHT22;2434;48.486;7.964;2023-04-25T13:13:15;8.40;85.90
4840;DHT22;2434;48.486;7.964;2023-04-25T13:15:43;8.30;86.00
4840;DHT22;2434;48.486;7.964;2023-04-25T13:18:11;8.70;87.90
4840;DHT22;2434;48.486;7.964;2023-04-25T13:20:40;9.00;84.60
4840;DHT22;2434;48.486;7.964;2023-04-25T13:23:08;9.20;85.20
4840;DHT22;2434;48.486;7.964;2023-04-25T13:25:36;9.40;84.60
4840;DHT22;2434;48.486;7.964;2023-04-25T13:28:04;9.70;86.00
4840;DHT22;2434;48.486;7.964;2023-04-25T13:30:34;9.90;87.50
4840;DHT22;2434;48.486;7.964;2023-04-25T13:33:02;10.10;89.60
4840;DHT22;2434;48.486;7.964;2023-04-25T13:35:34;10.30;91.00
4840;DHT22;2434;48.486;7.964;2023-04-25T13:38:03;10.50;88.90
4840;DHT22;2434;48.486;7.964;2023-04-25T13:40:31;10.80;91.30
4840;DHT22;2434;48.486;7.964;2023-04-25T13:43:01;10.90;90.30
4840;DHT22;2434;48.486;7.964;2023-04-25T13:45:29;11.10;85.10
4840;DHT22;2434;48.486;7.964;2023-04-25T13:48:01;11.30;81.90
4840;DHT22;2434;48.486;7.964;2023-04-25T13:50:29;11.40;76.70
4840;DHT22;2434;48.486;7.964;2023-04-25T13:52:58;11.40;74.70
4840;DHT22;2434;48.486;7.964;2023-04-25T13:55:27;11.40;74.40
4840;DHT22;2434;48.486;7.964;2023-04-25T13:57:55;11.50;74.80
4840;DHT22;2434;48.486;7.964;2023-04-25T14:00:23;11.50;75.10
4840;DHT22;2434;48.486;7.964;2023-04-25T14:02:52;11.50;75.00
4840;DHT22;2434;48.486;7.964;2023-04-25T14:05:21;11.40;75.90
4840;DHT22;2434;48.486;7.964;2023-04-25T14:07:50;11.40;77.40
4840;DHT22;2434;48.486;7.964;2023-04-25T14:10:20;11.40;77.80
4840;DHT22;2434;48.486;7.964;2023-04-25T14:12:48;11.40;76.10
4840;DHT22;2434;48.486;7.964;2023-04-25T14:15:16;11.50;76.20
4840;DHT22;2434;48.486;7.964;2023-04-25T14:17:45;11.60;77.00
4840;DHT22;2434;48.486;7.964;2023-04-25T14:20:15;11.60;73.80
4840;DHT22;2434;48.486;7.964;2023-04-25T14:22:48;11.60;71.60
4840;DHT22;2434;48.486;7.964;2023-04-25T14:25:16;11.80;73.30
4840;DHT22;2434;48.486;7.964;2023-04-25T14:27:44;11.50;65.80
4840;DHT22;2434;48.486;7.964;2023-04-25T14:30:17;11.70;70.00
4840;DHT22;2434;48.486;7.964;2023-04-25T14:32:45;11.60;67.50
4840;DHT22;2434;48.486;7.964;2023-04-25T14:35:13;11.70;68.60
4840;DHT22;2434;48.486;7.964;2023-04-25T14:37:41;11.80;63.50
4840;DHT22;2434;48.486;7.964;2023-04-25T14:40:11;12.00;64.00
4840;DHT22;2434;48.486;7.964;2023-04-25T14:42:42;11.90;59.10
4840;DHT22;2434;48.486;7.964;2023-04-25T14:45:10;12.00;57.30
4840;DHT22;2434;48.486;7.964;2023-04-25T14:47:39;12.00;56.20
4840;DHT22;2434;48.486;7.964;2023-04-25T14:50:08;12.10;57.20
4840;DHT22;2434;48.486;7.964;2023-04-25T14:52:36;12.10;56.70
4840;DHT22;2434;48.486;7.964;2023-04-25T14:55:05;12.30;61.50
4840;DHT22;2434;48.486;7.964;2023-04-25T14:57:35;12.30;58.70
4840;DHT22;2434;48.486;7.964;2023-04-25T15:00:04;12.30;53.30
4840;DHT22;2434;48.486;7.964;2023-04-25T15:02:36;12.40;54.50
4840;DHT22;2434;48.486;7.964;2023-04-25T15:05:05;12.60;55.30
4840;DHT22;2434;48.486;7.964;2023-04-25T15:07:35;12.70;57.20
4840;DHT22;2434;48.486;7.964;2023-04-25T15:10:04;12.50;56.90
4840;DHT22;2434;48.486;7.964;2023-04-25T15:12:33;12.00;55.30
4840;DHT22;2434;48.486;7.964;2023-04-25T15:15:03;11.70;55.80
4840;DHT22;2434;48.486;7.964;2023-04-25T15:17:32;11.50;56.70
4840;DHT22;2434;48.486;7.964;2023-04-25T15:20:00;11.60;58.00
4840;DHT22;2434;48.486;7.964;2023-04-25T15:22:28;11.90;55.70
4840;DHT22;2434;48.486;7.964;2023-04-25T15:24:57;12.10;56.20
4840;DHT22;2434;48.486;7.964;2023-04-25T15:27:25;12.20;51.80
4840;DHT22;2434;48.486;7.964;2023-04-25T15:29:54;12.20;51.90
4840;DHT22;2434;48.486;7.964;2023-04-25T15:32:24;12.00;53.30
4840;DHT22;2434;48.486;7.964;2023-04-25T15:34:52;12.20;53.90
4840;DHT22;2434;48.486;7.964;2023-04-25T15:37:21;12.30;52.70
4840;DHT22;2434;48.486;7.964;2023-04-25T15:40:01;11.90;50.40
4840;DHT22;2434;48.486;7.964;2023-04-25T15:42:31;12.20;54.00
4840;DHT22;2434;48.486;7.964;2023-04-25T15:44:59;12.30;51.50
4840;DHT22;2434;48.486;7.964;2023-04-25T15:47:29;12.50;50.80
4840;DHT22;2434;48.486;7.964;2023-04-25T15:49:57;12.50;52.40
4840;DHT22;2434;48.486;7.964;2023-04-25T15:52:27;12.60;50.50
4840;DHT22;2434;48.486;7.964;2023-04-25T15:54:55;12.50;52.30
4840;DHT22;2434;48.486;7.964;2023-04-25T15:57:24;12.30;51.20
4840;DHT22;2434;48.486;7.964;2023-04-25T15:59:52;12.00;51.70
4840;DHT22;2434;48.486;7.964;2023-04-25T16:02:22;11.90;52.50
4840;DHT22;2434;48.486;7.964;2023-04-25T16:04:52;11.80;53.40
4840;DHT22;2434;48.486;7.964;2023-04-25T16:07:20;11.60;53.60
4840;DHT22;2434;48.486;7.964;2023-04-25T16:09:48;11.50;57.80
4840;DHT22;2434;48.486;7.964;2023-04-25T16:12:17;11.50;57.90
4840;DHT22;2434;48.486;7.964;2023-04-25T16:14:45;11.70;57.20
4840;DHT22;2434;48.486;7.964;2023-04-25T16:17:13;11.90;58.80
4840;DHT22;2434;48.486;7.964;2023-04-25T16:19:41;12.00;57.80
4840;DHT22;2434;48.486;7.964;2023-04-25T16:22:11;12.10;55.90
4840;DHT22;2434;48.486;7.964;2023-04-25T16:24:44;12.20;57.50
4840;DHT22;2434;48.486;7.964;2023-04-25T16:27:13;12.20;57.40
4840;DHT22;2434;48.486;7.964;2023-04-25T16:29:41;12.20;56.20
4840;DHT22;2434;48.486;7.964;2023-04-25T16:32:10;12.00;57.80
4840;DHT22;2434;48.486;7.964;2023-04-25T16:34:39;11.90;60.10
4840;DHT22;2434;48.486;7.964;2023-04-25T16:37:07;12.00;65.20